Aviation Digital Data Service (ADDS)

Output produced by METARs form (1904 UTC 20 April 2014)
found at http://aviationweather.gov/adds/metars/
 
KEWN 201725Z 2018/2118 02018G28KT P6SM -SHRA OVC015 
     TEMPO 2018/2021 2SM -RA BR OVC009 
     FM210500 01015G25KT P6SM OVC008 
     FM211300 01010KT P6SM OVC015